14  °C
Temperature
11  °C
  Dewpoint
   Humidity
Temp | Dewpoint | Humidity
13  km/h
Wind Speed
8  mph
Wind Speed
7  kts
Wind Speed
70°
East North
East

Wind Speed
Clear
Conditions
Pressure 1009.92 (hPa) - 29.82 (in)
Visibility 6.2 (mi) - 10.0 (km)

Current Conditions
EHRD
Location 6km (3.2mi)
Metar :EHRD 231525Z AUTO 07007KT 9999 NSC 14/11 Q1010 NOSIG
Wed 23rd October 17:25 pm

Airport
  Metar Aviation API Data Provided by https://www.checkwx.com/ CSS/SVG/PHP scripts by weather34.com © 2015-2019